createdAt,value
2019-03-26T00:00:28.304Z,94528.20
2019-03-26T00:02:57.349Z,94521.97
2019-03-26T00:05:26.031Z,94523.58
2019-03-26T00:07:54.687Z,94526.45
2019-03-26T00:10:23.367Z,94530.78
2019-03-26T00:12:52.200Z,94533.48
2019-03-26T00:15:20.815Z,94537.61
2019-03-26T00:17:49.494Z,94538.11
2019-03-26T00:20:18.169Z,94540.81
2019-03-26T00:22:46.823Z,94544.80
2019-03-26T00:25:15.502Z,94536.54
2019-03-26T00:27:44.245Z,94540.00
2019-03-26T00:30:13.128Z,94539.50
2019-03-26T00:32:41.726Z,94548.64
2019-03-26T00:35:10.416Z,94553.28
2019-03-26T00:37:39.054Z,94551.30
2019-03-26T00:40:07.808Z,94557.22
2019-03-26T00:42:36.446Z,94558.47
2019-03-26T00:45:07.015Z,94558.13
2019-03-26T00:47:35.647Z,94562.85
2019-03-26T00:50:06.164Z,94569.34
2019-03-26T00:52:34.841Z,94566.73
2019-03-26T00:55:04.378Z,94568.19
2019-03-26T00:57:33.172Z,94567.26
2019-03-26T01:00:02.394Z,94573.97
2019-03-26T01:02:31.013Z,94573.97
2019-03-26T01:04:59.676Z,94577.08
2019-03-26T01:07:28.365Z,94582.08
2019-03-26T01:09:57.086Z,94584.38
2019-03-26T01:12:25.774Z,94582.67
2019-03-26T01:14:54.534Z,94586.50
2019-03-26T01:17:23.374Z,94588.59
2019-03-26T01:19:52.046Z,94589.17
2019-03-26T01:22:20.666Z,94579.73
2019-03-26T01:24:49.362Z,94570.42
2019-03-26T01:27:18.093Z,94576.89
2019-03-26T01:29:46.764Z,94575.31
2019-03-26T01:32:15.443Z,94582.53
2019-03-26T01:34:46.093Z,94582.84
2019-03-26T01:37:14.445Z,94574.97
2019-03-26T01:39:43.119Z,94583.66
2019-03-26T01:42:11.823Z,94587.79
2019-03-26T01:44:40.493Z,94583.72
2019-03-26T01:47:09.095Z,94591.00
2019-03-26T01:49:37.766Z,94586.92
2019-03-26T01:52:06.450Z,94589.02
2019-03-26T01:54:35.045Z,94595.42
2019-03-26T01:57:03.722Z,94601.56
2019-03-26T01:59:32.392Z,94593.64
2019-03-26T02:02:01.075Z,94591.88
2019-03-26T02:04:30.392Z,94593.36
2019-03-26T02:06:59.067Z,94598.00
2019-03-26T02:09:27.685Z,94597.55
2019-03-26T02:11:56.456Z,94606.41
2019-03-26T02:14:25.066Z,94608.32
2019-03-26T02:16:53.759Z,94608.14
2019-03-26T02:19:22.418Z,94612.46
2019-03-26T02:21:51.091Z,94611.38
2019-03-26T02:24:19.702Z,94609.25
2019-03-26T02:26:48.350Z,94623.96
2019-03-26T02:29:17.040Z,94620.75
2019-03-26T02:31:45.726Z,94621.08
2019-03-26T02:34:14.345Z,94623.95
2019-03-26T02:36:42.963Z,94615.52
2019-03-26T02:39:11.728Z,94621.59
2019-03-26T02:41:40.339Z,94613.11
2019-03-26T02:44:09.465Z,94619.23
2019-03-26T02:46:38.295Z,94613.27
2019-03-26T02:49:06.963Z,94617.61
2019-03-26T02:51:35.640Z,94624.36
2019-03-26T02:54:04.330Z,94626.42
2019-03-26T02:56:32.973Z,94634.05
2019-03-26T02:59:01.668Z,94634.30
2019-03-26T03:01:30.289Z,94647.03
2019-03-26T03:04:00.491Z,94660.55
2019-03-26T03:06:29.177Z,94662.57
2019-03-26T03:08:57.868Z,94668.55
2019-03-26T03:11:26.494Z,94676.26
2019-03-26T03:13:55.465Z,94680.37
2019-03-26T03:16:24.137Z,94679.60
2019-03-26T03:18:54.364Z,94682.55
2019-03-26T03:21:22.984Z,94687.08
2019-03-26T03:23:51.648Z,94691.91
2019-03-26T03:26:20.322Z,94695.92
2019-03-26T03:28:48.970Z,94707.92
2019-03-26T03:31:17.667Z,94709.86
2019-03-26T03:33:46.342Z,94709.68
2019-03-26T03:36:14.954Z,94711.02
2019-03-26T03:38:43.588Z,94713.46
2019-03-26T03:41:12.259Z,94719.17
2019-03-26T03:43:40.871Z,94724.80
2019-03-26T03:46:09.561Z,94724.77
2019-03-26T03:48:38.176Z,94722.54
2019-03-26T03:51:08.426Z,94724.66
2019-03-26T03:53:37.340Z,94724.14
2019-03-26T03:56:06.543Z,94722.06
2019-03-26T03:58:36.631Z,94725.52
2019-03-26T04:01:05.289Z,94730.52
2019-03-26T04:03:33.907Z,94738.34
2019-03-26T04:06:09.307Z,94733.11
2019-03-26T04:08:32.918Z,94737.42
2019-03-26T04:11:01.592Z,94733.14
2019-03-26T04:13:30.196Z,94738.18
2019-03-26T04:15:58.895Z,94733.86
2019-03-26T04:18:27.507Z,94737.13
2019-03-26T04:20:56.145Z,94739.18
2019-03-26T04:23:24.812Z,94752.38
2019-03-26T04:25:53.427Z,94750.77
2019-03-26T04:28:22.081Z,94749.49
2019-03-26T04:30:50.747Z,94750.37
2019-03-26T04:33:19.369Z,94753.92
2019-03-26T04:35:48.043Z,94755.49
2019-03-26T04:38:16.676Z,94762.98
2019-03-26T04:40:45.376Z,94759.38
2019-03-26T04:43:14.071Z,94764.50
2019-03-26T04:45:44.511Z,94759.81
2019-03-26T04:48:13.116Z,94757.69
2019-03-26T04:50:41.801Z,94761.12
2019-03-26T04:53:10.500Z,94764.75
2019-03-26T04:55:39.155Z,94768.30
2019-03-26T04:58:07.849Z,94765.08
2019-03-26T05:00:36.517Z,94768.77
2019-03-26T05:03:05.130Z,94768.81
2019-03-26T05:05:34.773Z,94776.16
2019-03-26T05:08:03.392Z,94779.67
2019-03-26T05:10:32.063Z,94784.95
2019-03-26T05:13:00.681Z,94776.96
2019-03-26T05:15:29.420Z,94788.16
2019-03-26T05:17:58.139Z,94792.00
2019-03-26T05:20:26.852Z,94789.44
2019-03-26T05:22:55.535Z,94799.14
2019-03-26T05:25:24.160Z,94805.91
2019-03-26T05:27:52.822Z,94806.98
2019-03-26T05:30:21.512Z,94803.05
2019-03-26T05:32:50.194Z,94809.11
2019-03-26T05:35:18.820Z,94814.72
2019-03-26T05:37:47.497Z,94826.05
2019-03-26T05:40:16.928Z,94829.75
2019-03-26T05:42:45.618Z,94837.76
2019-03-26T05:45:14.301Z,94843.50
2019-03-26T05:47:42.979Z,94850.57
2019-03-26T05:50:11.986Z,94848.14
2019-03-26T05:52:40.674Z,94854.06
2019-03-26T05:55:10.551Z,94850.28
2019-03-26T05:57:39.667Z,94857.25
2019-03-26T06:00:12.110Z,94864.88
2019-03-26T06:02:40.721Z,94868.95
2019-03-26T06:05:09.488Z,94865.06
2019-03-26T06:07:38.119Z,94863.81
2019-03-26T06:10:08.675Z,94866.08
2019-03-26T06:12:37.353Z,94861.58
2019-03-26T06:15:08.158Z,94865.91
2019-03-26T06:17:36.746Z,94867.47
2019-03-26T06:20:09.767Z,94872.48
2019-03-26T06:22:38.599Z,94877.62
2019-03-26T06:25:07.988Z,94872.34
2019-03-26T06:27:36.743Z,94873.91
2019-03-26T06:30:10.444Z,94879.69
2019-03-26T06:32:39.091Z,94883.42
2019-03-26T06:35:09.092Z,94885.53
2019-03-26T06:37:37.882Z,94887.44
2019-03-26T06:40:08.625Z,94887.32
2019-03-26T06:42:37.308Z,94894.72
2019-03-26T06:45:08.133Z,94896.75
2019-03-26T06:47:36.800Z,94895.31
2019-03-26T06:50:08.435Z,94888.75
2019-03-26T06:52:37.117Z,94903.39
2019-03-26T06:55:07.820Z,94903.19
2019-03-26T06:57:37.092Z,94900.09
2019-03-26T07:00:12.011Z,94906.11
2019-03-26T07:02:40.681Z,94913.11
2019-03-26T07:05:09.846Z,94916.58
2019-03-26T07:07:38.468Z,94912.88
2019-03-26T07:10:08.606Z,94917.13
2019-03-26T07:12:37.276Z,94915.83
2019-03-26T07:15:09.561Z,94916.00
2019-03-26T07:17:38.223Z,94925.97
2019-03-26T07:20:08.658Z,94932.06
2019-03-26T07:22:37.320Z,94934.97
2019-03-26T07:25:08.281Z,94932.24
2019-03-26T07:27:37.099Z,94933.05
2019-03-26T07:30:07.896Z,94937.38
2019-03-26T07:32:36.524Z,94930.64
2019-03-26T07:35:07.070Z,94928.04
2019-03-26T07:37:45.063Z,94933.67
2019-03-26T07:40:10.277Z,94939.91
2019-03-26T07:42:38.953Z,94933.98
2019-03-26T07:45:08.001Z,94929.97
2019-03-26T07:47:36.698Z,94925.16
2019-03-26T07:50:07.421Z,94921.08
2019-03-26T07:52:36.100Z,94917.80
2019-03-26T07:55:06.497Z,94912.98
2019-03-26T07:57:35.114Z,94907.94
2019-03-26T08:00:08.954Z,94913.75
2019-03-26T08:02:37.573Z,94908.54
2019-03-26T08:05:08.978Z,94915.91
2019-03-26T08:07:38.150Z,94911.09
2019-03-26T08:10:08.456Z,94899.61
2019-03-26T08:12:37.149Z,94907.77
2019-03-26T08:15:08.339Z,94907.08
2019-03-26T08:17:36.938Z,94912.00
2019-03-26T08:20:07.466Z,94915.04
2019-03-26T08:22:36.177Z,94912.63
2019-03-26T08:25:07.877Z,94909.16
2019-03-26T08:27:36.570Z,94923.22
2019-03-26T08:30:07.128Z,94918.45
2019-03-26T08:32:37.245Z,94919.41
2019-03-26T08:35:06.878Z,94923.67
2019-03-26T08:37:35.552Z,94927.95
2019-03-26T08:40:07.275Z,94928.79
2019-03-26T08:42:36.065Z,94929.47
2019-03-26T08:45:07.146Z,94933.78
2019-03-26T08:47:35.807Z,94936.78
2019-03-26T08:50:08.195Z,94937.21
2019-03-26T08:52:36.844Z,94931.23
2019-03-26T08:55:07.989Z,94936.19
2019-03-26T08:57:36.712Z,94939.09
2019-03-26T09:00:06.501Z,94939.94
2019-03-26T09:02:35.194Z,94935.41
2019-03-26T09:05:04.215Z,94942.17
2019-03-26T09:07:32.891Z,94945.54
2019-03-26T09:10:01.504Z,94937.99
2019-03-26T09:12:30.152Z,94939.77
2019-03-26T09:14:58.799Z,94939.11
2019-03-26T09:17:27.411Z,94943.88
2019-03-26T09:19:56.120Z,94946.20
2019-03-26T09:22:24.739Z,94949.16
2019-03-26T09:24:53.417Z,94946.17
2019-03-26T09:27:22.030Z,94945.02
2019-03-26T09:29:50.726Z,94947.39
2019-03-26T09:32:19.342Z,94951.02
2019-03-26T09:34:48.030Z,94940.34
2019-03-26T09:37:16.632Z,94948.06
2019-03-26T09:39:45.339Z,94944.19
2019-03-26T09:42:14.020Z,94953.77
2019-03-26T09:44:42.690Z,94955.13
2019-03-26T09:47:16.525Z,94950.88
2019-03-26T09:49:41.752Z,94943.86
2019-03-26T09:52:10.468Z,94948.08
2019-03-26T09:54:39.157Z,94946.51
2019-03-26T09:57:07.852Z,94953.66
2019-03-26T09:59:36.476Z,94937.95
2019-03-26T10:02:05.154Z,94949.63
2019-03-26T10:04:33.766Z,94955.73
2019-03-26T10:07:02.446Z,94950.88
2019-03-26T10:09:31.066Z,94947.34
2019-03-26T10:11:59.742Z,94950.66
2019-03-26T10:14:28.368Z,94952.04
2019-03-26T10:16:56.972Z,94948.30
2019-03-26T10:19:25.652Z,94948.08
2019-03-26T10:21:54.259Z,94944.17
2019-03-26T10:24:22.947Z,94945.53
2019-03-26T10:26:51.627Z,94947.44
2019-03-26T10:29:30.075Z,94938.18
2019-03-26T10:31:50.659Z,94940.22
2019-03-26T10:34:19.735Z,94940.45
2019-03-26T10:36:48.413Z,94945.22
2019-03-26T10:39:17.102Z,94944.80
2019-03-26T10:41:45.708Z,94938.84
2019-03-26T10:44:14.370Z,94950.39
2019-03-26T10:46:44.570Z,94942.86
2019-03-26T10:49:13.466Z,94937.27
2019-03-26T10:51:42.094Z,94942.27
2019-03-26T10:54:10.776Z,94942.80
2019-03-26T10:56:39.426Z,94937.95
2019-03-26T10:59:08.100Z,94935.31
2019-03-26T11:01:39.619Z,94930.74
2019-03-26T11:04:08.302Z,94923.83
2019-03-26T11:06:36.979Z,94921.52
2019-03-26T11:09:20.079Z,94915.61
2019-03-26T11:11:37.488Z,94912.08
2019-03-26T11:14:06.193Z,94917.58
2019-03-26T11:16:34.830Z,94911.38
2019-03-26T11:19:03.502Z,94908.59
2019-03-26T11:21:32.123Z,94911.52
2019-03-26T11:24:04.963Z,94915.69
2019-03-26T11:26:31.259Z,94908.78
2019-03-26T11:28:59.887Z,94905.43
2019-03-26T11:31:30.048Z,94898.65
2019-03-26T11:33:59.119Z,94904.70
2019-03-26T11:36:27.734Z,94903.22
2019-03-26T11:38:56.421Z,94902.09
2019-03-26T11:41:25.036Z,94901.58
2019-03-26T11:43:53.753Z,94902.79
2019-03-26T11:46:22.334Z,94902.36
2019-03-26T11:48:51.003Z,94901.53
2019-03-26T11:51:19.681Z,94899.52
2019-03-26T11:53:48.289Z,94895.70
2019-03-26T11:56:16.960Z,94899.23
2019-03-26T11:58:45.655Z,94903.92
2019-03-26T12:01:14.273Z,94906.31
2019-03-26T12:03:42.974Z,94894.55
2019-03-26T12:06:11.588Z,94897.06
2019-03-26T12:08:40.272Z,94901.37
2019-03-26T12:11:08.931Z,94907.53
2019-03-26T12:13:37.621Z,94899.02
2019-03-26T12:16:06.317Z,94899.83
2019-03-26T12:18:34.950Z,94883.38
2019-03-26T12:21:03.603Z,94884.75
2019-03-26T12:23:32.241Z,94881.16
2019-03-26T12:26:00.946Z,94892.22
2019-03-26T12:28:29.587Z,94881.63
2019-03-26T12:30:58.247Z,94883.23
2019-03-26T12:33:26.866Z,94882.05
2019-03-26T12:35:55.516Z,94880.70
2019-03-26T12:38:24.238Z,94880.18
2019-03-26T12:40:52.892Z,94875.73
2019-03-26T12:43:21.688Z,94874.61
2019-03-26T12:45:50.302Z,94870.29
2019-03-26T12:48:18.978Z,94861.17
2019-03-26T12:50:47.604Z,94871.03
2019-03-26T12:53:16.272Z,94872.08
2019-03-26T12:55:44.945Z,94867.50
2019-03-26T12:58:13.607Z,94864.79
2019-03-26T13:00:42.221Z,94887.66
2019-03-26T13:03:10.883Z,94881.73
2019-03-26T13:05:39.556Z,94878.00
2019-03-26T13:08:08.190Z,94876.68
2019-03-26T13:10:37.767Z,94871.45
2019-03-26T13:13:06.653Z,94868.48
2019-03-26T13:15:35.325Z,94860.12
2019-03-26T13:18:03.974Z,94866.90
2019-03-26T13:20:32.657Z,94884.41
2019-03-26T13:23:01.274Z,94885.18
2019-03-26T13:25:29.954Z,94872.81
2019-03-26T13:27:58.660Z,94879.28
2019-03-26T13:30:27.431Z,94876.30
2019-03-26T13:32:56.144Z,94888.30
2019-03-26T13:35:25.416Z,94884.59
2019-03-26T13:37:54.107Z,94883.09
2019-03-26T13:40:27.455Z,94880.84
2019-03-26T13:42:53.183Z,94879.77
2019-03-26T13:45:21.914Z,94873.22
2019-03-26T13:47:50.574Z,94881.55
2019-03-26T13:50:19.392Z,94863.48
2019-03-26T13:52:48.497Z,94864.64
2019-03-26T13:55:17.274Z,94862.72
2019-03-26T13:57:46.154Z,94878.47
2019-03-26T14:00:15.152Z,94874.62
2019-03-26T14:02:43.835Z,94878.18
2019-03-26T14:05:18.158Z,94884.05
2019-03-26T14:07:48.761Z,94880.34
2019-03-26T14:10:17.487Z,94853.41
2019-03-26T14:12:46.260Z,94878.89
2019-03-26T14:15:15.403Z,94876.57
2019-03-26T14:17:45.783Z,94875.45
2019-03-26T14:20:19.006Z,94868.05
2019-03-26T14:22:47.758Z,94880.88
2019-03-26T14:25:16.451Z,94870.16
2019-03-26T14:27:45.240Z,94880.14
2019-03-26T14:30:14.172Z,94878.55
2019-03-26T14:32:42.857Z,94879.83
2019-03-26T14:35:11.866Z,94879.44
2019-03-26T14:37:50.563Z,94873.88
2019-03-26T14:40:11.133Z,94867.95
2019-03-26T14:42:39.842Z,94872.22
2019-03-26T14:45:09.322Z,94873.31
2019-03-26T14:47:38.008Z,94875.24
2019-03-26T14:50:09.570Z,94874.42
2019-03-26T14:52:38.251Z,94880.48
2019-03-26T14:55:07.351Z,94885.42
2019-03-26T14:57:36.144Z,94889.73
2019-03-26T15:00:06.520Z,94881.55
2019-03-26T15:02:36.778Z,94878.87
2019-03-26T15:05:07.734Z,94876.34
2019-03-26T15:07:37.222Z,94877.66
2019-03-26T15:10:07.243Z,94891.14
2019-03-26T15:12:35.941Z,94882.86
2019-03-26T15:15:06.223Z,94882.05
2019-03-26T15:17:34.835Z,94884.61
2019-03-26T15:20:06.467Z,94888.38
2019-03-26T15:22:35.149Z,94885.64
2019-03-26T15:25:04.468Z,94885.01
2019-03-26T15:27:33.109Z,94879.86
2019-03-26T15:30:01.799Z,94889.04
2019-03-26T15:32:30.475Z,94887.57
2019-03-26T15:35:00.379Z,94887.73
2019-03-26T15:37:29.435Z,94885.62
2019-03-26T15:39:58.150Z,94882.41
2019-03-26T15:42:26.908Z,94883.01
2019-03-26T15:44:55.585Z,94875.48
2019-03-26T15:47:24.210Z,94877.88
2019-03-26T15:49:52.984Z,94880.23
2019-03-26T15:52:21.662Z,94887.22
2019-03-26T15:54:50.280Z,94884.17
2019-03-26T15:57:18.952Z,94888.97
2019-03-26T15:59:47.571Z,94896.34
2019-03-26T16:02:16.199Z,94880.31
2019-03-26T16:04:44.889Z,94888.09
2019-03-26T16:07:13.584Z,94890.90
2019-03-26T16:09:43.752Z,94896.92
2019-03-26T16:12:12.440Z,94889.46
2019-03-26T16:14:41.102Z,94894.13
2019-03-26T16:17:09.878Z,94897.68
2019-03-26T16:19:38.577Z,94897.41
2019-03-26T16:22:07.417Z,94899.44
2019-03-26T16:24:36.052Z,94903.94
2019-03-26T16:27:04.730Z,94902.16
2019-03-26T16:29:33.435Z,94903.59
2019-03-26T16:32:02.126Z,94900.69
2019-03-26T16:34:30.824Z,94900.14
2019-03-26T16:37:00.147Z,94897.24
2019-03-26T16:39:29.133Z,94901.46
2019-03-26T16:41:57.769Z,94915.26
2019-03-26T16:44:26.644Z,94917.48
2019-03-26T16:46:56.908Z,94920.39
2019-03-26T16:49:25.588Z,94920.55
2019-03-26T16:51:55.563Z,94923.87
2019-03-26T16:54:24.196Z,94919.10
2019-03-26T16:56:53.015Z,94925.56
2019-03-26T16:59:21.766Z,94925.28
2019-03-26T17:01:50.524Z,94922.33
2019-03-26T17:04:19.130Z,94917.33
2019-03-26T17:06:47.806Z,94926.84
2019-03-26T17:09:16.449Z,94915.98
2019-03-26T17:12:02.139Z,94921.81
2019-03-26T17:14:19.803Z,94921.33
2019-03-26T17:16:48.479Z,94924.50
2019-03-26T17:19:19.878Z,94916.51
2019-03-26T17:21:48.561Z,94918.75
2019-03-26T17:24:17.163Z,94926.66
2019-03-26T17:26:45.851Z,94916.72
2019-03-26T17:29:14.456Z,94920.58
2019-03-26T17:31:43.135Z,94927.34
2019-03-26T17:34:11.783Z,94924.72
2019-03-26T17:36:40.407Z,94924.23
2019-03-26T17:39:10.011Z,94927.99
2019-03-26T17:41:38.698Z,94924.48
2019-03-26T17:44:07.332Z,94938.97
2019-03-26T17:46:36.084Z,94935.91
2019-03-26T17:49:04.780Z,94934.78
2019-03-26T17:51:33.628Z,94941.23
2019-03-26T17:54:02.319Z,94945.09
2019-03-26T17:56:30.989Z,94944.75
2019-03-26T17:58:59.721Z,94946.69
2019-03-26T18:01:29.900Z,94944.95
2019-03-26T18:03:58.636Z,94954.73
2019-03-26T18:06:27.316Z,94962.45
2019-03-26T18:08:56.509Z,94966.45
2019-03-26T18:11:25.138Z,94970.80
2019-03-26T18:13:53.751Z,94964.99
2019-03-26T18:16:24.483Z,94977.55
2019-03-26T18:18:55.012Z,94974.64
2019-03-26T18:21:24.703Z,94975.29
2019-03-26T18:23:55.169Z,94980.28
2019-03-26T18:26:23.964Z,94986.21
2019-03-26T18:28:55.350Z,94987.19
2019-03-26T18:31:23.626Z,94982.97
2019-03-26T18:33:52.978Z,94995.59
2019-03-26T18:36:21.751Z,94993.08
2019-03-26T18:38:50.384Z,94998.80
2019-03-26T18:41:19.192Z,95004.56
2019-03-26T18:43:47.960Z,95007.02
2019-03-26T18:46:16.651Z,95004.51
2019-03-26T18:48:46.977Z,95004.11
2019-03-26T18:51:15.865Z,95004.31
2019-03-26T18:53:45.886Z,95004.73
2019-03-26T18:56:14.672Z,95012.72
2019-03-26T18:58:43.365Z,95012.56
2019-03-26T19:01:14.194Z,95011.79
2019-03-26T19:03:43.080Z,95007.48
2019-03-26T19:06:11.780Z,95006.92
2019-03-26T19:08:40.459Z,95012.00
2019-03-26T19:11:09.251Z,95008.69
2019-03-26T19:13:39.580Z,95005.34
2019-03-26T19:16:09.897Z,95009.14
2019-03-26T19:18:40.535Z,95015.67
2019-03-26T19:21:09.008Z,95013.41
2019-03-26T19:23:37.666Z,95017.97
2019-03-26T19:26:06.386Z,95020.66
2019-03-26T19:28:35.072Z,95018.39
2019-03-26T19:31:04.294Z,95021.82
2019-03-26T19:33:33.069Z,95021.38
2019-03-26T19:36:02.111Z,95023.08
2019-03-26T19:38:31.070Z,95023.55
2019-03-26T19:41:00.345Z,95024.73
2019-03-26T19:43:29.135Z,95032.14
2019-03-26T19:45:58.040Z,95024.84
2019-03-26T19:48:26.829Z,95020.36
2019-03-26T19:50:57.305Z,95015.55
2019-03-26T19:53:26.035Z,95019.88
2019-03-26T19:55:54.926Z,95024.54
2019-03-26T19:58:26.938Z,95022.00
2019-03-26T20:00:59.055Z,95029.44
2019-03-26T20:03:27.762Z,95024.15
2019-03-26T20:05:58.369Z,95025.88
2019-03-26T20:08:27.168Z,95032.44
2019-03-26T20:10:56.161Z,95029.11
2019-03-26T20:13:25.251Z,95029.75
2019-03-26T20:15:53.979Z,95035.94
2019-03-26T20:18:23.542Z,95021.25
2019-03-26T20:20:53.666Z,95027.67
2019-03-26T20:23:22.981Z,95030.69
2019-03-26T20:25:53.079Z,95026.77
2019-03-26T20:28:21.794Z,95032.92
2019-03-26T20:30:53.811Z,95035.55
2019-03-26T20:33:22.437Z,95034.72
2019-03-26T20:35:52.146Z,95039.31
2019-03-26T20:38:21.126Z,95037.05
2019-03-26T20:40:49.927Z,95038.11
2019-03-26T20:43:18.599Z,95045.04
2019-03-26T20:45:48.519Z,95041.81
2019-03-26T20:48:18.989Z,95045.99
2019-03-26T20:50:47.753Z,95048.20
2019-03-26T20:53:18.066Z,95041.48
2019-03-26T20:55:54.363Z,95044.79
2019-03-26T20:58:17.679Z,95052.56
2019-03-26T21:00:46.703Z,95053.03
2019-03-26T21:03:17.301Z,95056.88
2019-03-26T21:05:47.117Z,95054.20
2019-03-26T21:08:17.463Z,95050.03
2019-03-26T21:10:48.930Z,95056.41
2019-03-26T21:13:17.679Z,95059.30
2019-03-26T21:15:56.633Z,95056.77
2019-03-26T21:18:16.897Z,95053.47
2019-03-26T21:20:45.630Z,95060.42
2019-03-26T21:23:16.377Z,95063.29
2019-03-26T21:25:47.006Z,95056.54
2019-03-26T21:28:15.739Z,95052.24
2019-03-26T21:30:44.424Z,95061.41
2019-03-26T21:33:13.115Z,95062.66
2019-03-26T21:35:41.800Z,95062.23
2019-03-26T21:38:10.583Z,95057.73
2019-03-26T21:40:39.382Z,95057.43
2019-03-26T21:43:08.073Z,95052.36
2019-03-26T21:45:38.056Z,95056.60
2019-03-26T21:48:07.400Z,95060.22
2019-03-26T21:50:38.368Z,95059.32
2019-03-26T21:53:07.421Z,95061.23
2019-03-26T21:55:36.193Z,95063.11
2019-03-26T21:58:04.886Z,95054.97
2019-03-26T22:00:33.682Z,95056.77
2019-03-26T22:03:02.374Z,95062.45
2019-03-26T22:05:31.155Z,95062.70
2019-03-26T22:07:59.942Z,95064.93
2019-03-26T22:10:28.624Z,95065.41
2019-03-26T22:12:57.314Z,95064.97
2019-03-26T22:15:26.106Z,95066.91
2019-03-26T22:17:54.798Z,95068.88
2019-03-26T22:20:25.116Z,95063.35
2019-03-26T22:22:53.928Z,95070.69
2019-03-26T22:25:22.791Z,95070.42
2019-03-26T22:27:51.483Z,95073.92
2019-03-26T22:30:20.274Z,95064.61
2019-03-26T22:32:48.957Z,95070.25
2019-03-26T22:35:18.071Z,95071.35
2019-03-26T22:37:46.845Z,95072.04
2019-03-26T22:40:15.524Z,95074.99
2019-03-26T22:42:44.211Z,95070.48
2019-03-26T22:45:13.510Z,95078.02
2019-03-26T22:47:42.199Z,95080.97
2019-03-26T22:50:11.713Z,95077.63
2019-03-26T22:52:41.206Z,95086.43
2019-03-26T22:55:10.711Z,95077.92
2019-03-26T22:57:39.403Z,95082.67
2019-03-26T23:00:20.172Z,95084.25
2019-03-26T23:05:59.426Z,95080.61
2019-03-26T23:08:29.964Z,95086.70
2019-03-26T23:10:58.643Z,95088.11
2019-03-26T23:13:27.427Z,95095.09
2019-03-26T23:15:56.121Z,95085.30
2019-03-26T23:18:24.807Z,95082.10
2019-03-26T23:20:53.490Z,95087.56
2019-03-26T23:23:22.283Z,95078.76
2019-03-26T23:25:50.927Z,95081.56
2019-03-26T23:28:19.656Z,95085.42
2019-03-26T23:30:48.339Z,95085.12
2019-03-26T23:33:17.033Z,95073.59
2019-03-26T23:35:45.815Z,95069.63
2019-03-26T23:38:51.336Z,95072.85
2019-03-26T23:41:28.689Z,95066.25
2019-03-26T23:50:17.558Z,95067.37
2019-03-26T23:52:46.861Z,95062.22
2019-03-26T23:55:15.660Z,95059.98
2019-03-26T23:57:44.376Z,95063.38
